createdAt,value
2018-11-29T00:06:46.382Z,27.9
2018-11-29T00:16:45.638Z,11.9
2018-11-29T00:26:55.377Z,13.5
2018-11-29T00:36:54.660Z,11.3
2018-11-29T00:46:53.919Z,11.4
2018-11-29T00:56:53.247Z,12.7
2018-11-29T01:06:52.526Z,9.6
2018-11-29T01:16:51.725Z,10.1
2018-11-29T01:26:50.951Z,11.7
2018-11-29T01:36:49.076Z,31.3
2018-11-29T01:46:48.398Z,11.9
2018-11-29T01:56:47.676Z,11.3
2018-11-29T02:06:46.920Z,11.1
2018-11-29T02:16:46.238Z,12.7
2018-11-29T02:26:45.469Z,11.1
2018-11-29T02:36:44.832Z,12.9
2018-11-29T02:46:42.830Z,20.9
2018-11-29T02:56:42.201Z,11.8
2018-11-29T03:06:41.597Z,11.5
2018-11-29T03:16:40.929Z,11.3
2018-11-29T03:26:40.439Z,12
2018-11-29T03:36:39.903Z,9.4
2018-11-29T03:46:39.273Z,6.6
2018-11-29T03:56:38.605Z,8.4
2018-11-29T04:06:37.921Z,5.2
2018-11-29T04:16:38.701Z,5.1
2018-11-29T04:26:38.012Z,5.1
2018-11-29T04:36:37.384Z,4.2
2018-11-29T04:46:36.654Z,3.7
2018-11-29T04:56:40.494Z,3.9
2018-11-29T05:06:38.863Z,7.9
2018-11-29T05:16:38.142Z,2.5
2018-11-29T05:26:37.574Z,3
2018-11-29T05:36:37.473Z,3.6
2018-11-29T05:46:36.689Z,2.1
2018-11-29T05:56:36.002Z,5.4
2018-11-29T06:06:35.293Z,5.7
2018-11-29T06:16:33.653Z,8.5
2018-11-29T06:26:33.013Z,2.5
2018-11-29T06:36:33.238Z,5.2
2018-11-29T06:46:32.585Z,3.5
2018-11-29T06:56:31.950Z,13.4
2018-11-29T07:06:31.273Z,4.6
2018-11-29T07:16:30.572Z,6.6
2018-11-29T07:26:29.436Z,12.9
2018-11-29T07:36:28.724Z,4.4
2018-11-29T07:46:27.961Z,7.8
2018-11-29T07:56:27.212Z,5.3
2018-11-29T08:06:26.396Z,11.5
2018-11-29T08:16:25.722Z,30.1
2018-11-29T08:26:25.264Z,10.7
2018-11-29T08:36:24.571Z,334.1
2018-11-29T08:46:23.903Z,232.1
2018-11-29T08:56:23.263Z,273.5
2018-11-29T09:06:22.587Z,54.7
2018-11-29T09:16:21.963Z,10
2018-11-29T09:26:21.552Z,9.9
2018-11-29T09:36:22.038Z,9.2
2018-11-29T09:46:21.431Z,13.9
2018-11-29T09:56:20.851Z,10.3
2018-11-29T10:06:20.254Z,10.6
2018-11-29T10:16:19.623Z,11
2018-11-29T10:26:18.994Z,5
2018-11-29T10:36:18.360Z,51.8
2018-11-29T10:46:17.767Z,55.1
2018-11-29T10:56:22.973Z,66.8
2018-11-29T11:06:22.543Z,11.2
2018-11-29T11:16:21.931Z,11.1
2018-11-29T11:26:21.401Z,25.8
2018-11-29T11:36:20.923Z,74.4
2018-11-29T11:46:20.507Z,52.4
2018-11-29T11:56:25.655Z,81.5
2018-11-29T12:06:24.929Z,42.8
2018-11-29T12:16:24.326Z,14
2018-11-29T12:26:24.750Z,33.9
2018-11-29T12:36:24.192Z,10
2018-11-29T12:46:23.701Z,16.1
2018-11-29T12:56:23.319Z,14.6
2018-11-29T20:56:43.888Z,14.2
2018-11-29T21:06:43.360Z,23.9
2018-11-29T21:16:42.816Z,11.9
2018-11-29T21:26:42.330Z,12.4
2018-11-29T21:36:41.788Z,12.7
2018-11-29T21:46:41.149Z,11.4
2018-11-29T21:56:42.712Z,10.4
2018-11-29T22:06:53.859Z,10.5
2018-11-29T22:17:02.091Z,22.9
2018-11-29T22:27:06.823Z,45.8
2018-11-29T22:37:17.330Z,23.2
2018-11-29T22:47:18.811Z,14.7
2018-11-29T22:57:18.299Z,15.9
2018-11-29T23:07:17.601Z,10
2018-11-29T23:17:15.701Z,30.5
2018-11-29T23:27:15.064Z,7.4
2018-11-29T23:37:13.187Z,19.8
2018-11-29T23:47:12.547Z,6.1
2018-11-29T23:57:11.890Z,7.6
